Time;durP1;ratioP1;P1;durP2;ratioP2;P2;SDS_P1;SDS_P2;PMS_P1;PMS_P2;Temp;Humidity;BMP_temperature;BMP_pressure;BME280_temperature;BME280_humidity;BME280_pressure;Samples;Min_cycle;Max_cycle;Signal;HPM_P1;HPM_P2
2022/10/24 00:00:36;;;;;;;9.18;6.95;;;19.10;91.80;;;19.13;57.88;98765.53;5062108;28;20055;-76
2022/10/24 00:03:22;;;;;;;7.93;7.05;;;19.10;91.90;;;19.13;57.78;98766.34;5072704;27;20488;-78
2022/10/24 00:05:48;;;;;;;9.57;6.93;;;19.10;91.80;;;19.09;58.27;98760.72;5067888;27;20040;-78
2022/10/24 00:08:15;;;;;;;8.35;6.78;;;19.00;92.10;;;19.12;58.96;98758.44;5067891;28;20096;-78
2022/10/24 00:10:46;;;;;;;10.30;7.15;;;19.10;92.20;;;19.15;58.32;98755.81;5065666;28;20061;-78
2022/10/24 00:13:13;;;;;;;9.18;6.90;;;19.10;92.20;;;19.17;57.66;98761.78;5065969;28;20122;-78
2022/10/24 00:15:42;;;;;;;9.45;7.45;;;19.10;91.90;;;19.15;57.85;98761.31;5048885;27;20044;-78
2022/10/24 00:18:08;;;;;;;9.32;6.65;;;19.10;91.90;;;19.15;57.54;98772.31;5073197;27;20100;-78
2022/10/24 00:20:35;;;;;;;9.98;7.13;;;19.10;92.00;;;19.14;57.51;98759.72;5069041;27;20031;-78
2022/10/24 00:23:02;;;;;;;7.97;6.85;;;19.10;91.80;;;19.11;58.47;98765.06;5050661;27;20040;-78
2022/10/24 00:25:28;;;;;;;8.07;6.53;;;19.10;92.10;;;19.12;58.42;98758.44;5053985;27;20058;-78
2022/10/24 00:27:54;;;;;;;10.73;7.05;;;19.10;92.00;;;19.11;58.43;98771.38;5066250;28;20394;-78
2022/10/24 00:30:20;;;;;;;8.52;6.97;;;19.10;92.00;;;19.12;57.94;98763.94;5084436;28;20040;-78
2022/10/24 00:32:46;;;;;;;7.88;6.47;;;19.10;92.20;;;19.11;57.78;98746.63;5073559;28;20042;-78
2022/10/24 00:35:12;;;;;;;9.68;7.30;;;19.10;91.80;;;19.10;57.77;98742.25;5084116;28;20043;-78
2022/10/24 00:37:38;;;;;;;10.68;6.18;;;19.10;91.80;;;19.11;58.08;98727.41;5082995;28;20448;-78
2022/10/24 00:40:06;;;;;;;11.85;7.20;;;19.10;92.00;;;19.14;58.40;98736.91;5086860;28;20352;-78
2022/10/24 00:42:32;;;;;;;8.48;6.43;;;19.10;92.20;;;19.13;58.24;98751.78;5055557;28;20101;-79
2022/10/24 00:44:58;;;;;;;8.95;6.65;;;19.10;92.10;;;19.14;57.93;98750.66;5048599;28;20043;-78
2022/10/24 00:47:25;;;;;;;8.77;6.57;;;19.10;91.90;;;19.12;57.74;98751.00;5081178;28;20052;-78
2022/10/24 00:50:03;;;;;;;10.00;7.88;;;19.10;91.90;;;19.12;57.91;98750.19;5059457;28;20470;-78
2022/10/24 00:52:33;;;;;;;8.85;7.45;;;19.10;91.90;;;19.09;57.61;98749.72;5071164;28;20070;-78
2022/10/24 00:54:59;;;;;;;12.43;8.68;;;19.00;91.80;;;19.08;58.26;98748.13;5053554;28;20043;-78
2022/10/24 00:57:33;;;;;;;10.18;7.20;;;19.00;92.10;;;19.07;58.68;98753.94;5056119;27;20097;-78
2022/10/24 01:00:14;;;;;;;9.93;6.72;;;19.10;92.20;;;19.08;58.26;98755.53;5069859;28;20047;-78
2022/10/24 01:02:41;;;;;;;7.85;6.85;;;19.10;92.00;;;19.09;57.83;98760.72;5068889;27;20551;-78
2022/10/24 01:05:08;;;;;;;11.15;8.07;;;19.00;91.80;;;19.07;57.80;98760.22;5061903;28;20596;-78
2022/10/24 01:07:46;;;;;;;7.07;6.32;;;19.00;91.90;;;19.09;57.59;98751.66;5078309;27;20045;-78
2022/10/24 01:10:33;;;;;;;10.80;7.65;;;19.10;91.90;;;19.05;58.18;98750.69;5098112;27;20546;-78
2022/10/24 01:13:19;;;;;;;8.32;7.07;;;19.00;92.00;;;19.10;58.22;98736.75;5082650;28;20040;-79
2022/10/24 01:16:17;;;;;;;10.93;8.00;;;19.10;92.10;;;19.09;58.31;98729.66;5080116;27;20485;-78
2022/10/24 01:18:51;;;;;;;10.07;7.72;;;19.10;92.00;;;19.09;57.69;98740.66;5067161;28;20050;-78
2022/10/24 01:21:36;;;;;;;9.98;7.28;;;19.10;91.90;;;19.11;57.48;98729.31;5052278;27;20549;-78
2022/10/24 01:24:36;;;;;;;10.57;8.02;;;19.10;91.80;;;19.10;57.63;98734.00;5055688;28;20098;-78
2022/10/24 01:27:13;;;;;;;7.43;6.65;;;19.00;91.80;;;19.04;58.29;98732.59;5088339;28;20471;-78
2022/10/24 01:29:58;;;;;;;8.75;6.90;;;19.00;92.10;;;19.05;58.45;98721.25;5088769;28;20031;-79
2022/10/24 01:32:52;;;;;;;10.55;7.45;;;19.00;92.10;;;19.08;57.93;98719.78;5083875;28;20038;-79
2022/10/24 01:35:34;;;;;;;12.07;7.85;;;19.00;91.90;;;19.09;57.81;98716.72;5087716;28;20040;-79
2022/10/24 01:38:30;;;;;;;11.68;7.72;;;19.00;91.80;;;19.03;57.67;98715.31;5059151;28;20140;-78
2022/10/24 01:41:03;;;;;;;12.07;8.15;;;19.00;91.80;;;19.09;57.32;98707.66;5075480;28;20040;-78
2022/10/24 01:43:43;;;;;;;10.43;6.93;;;19.00;91.80;;;19.06;58.17;98705.59;5090315;28;20039;-79
2022/10/24 01:46:26;;;;;;;9.65;7.60;;;19.00;92.00;;;19.07;58.28;98719.00;5056951;28;20048;-78
2022/10/24 01:48:59;;;;;;;11.60;7.50;;;19.00;92.00;;;19.07;57.96;98707.19;5075821;28;20092;-79
2022/10/24 01:51:26;;;;;;;11.07;7.15;;;19.10;91.90;;;19.10;57.40;98703.78;5086939;28;20604;-78
2022/10/24 01:53:52;;;;;;;11.98;7.95;;;19.00;91.80;;;19.09;57.48;98710.41;5055909;28;20067;-78
2022/10/24 01:56:18;;;;;;;10.55;7.70;;;19.00;91.80;;;19.06;57.41;98709.13;5071487;28;20498;-78
2022/10/24 01:58:44;;;;;;;8.30;7.50;;;19.00;91.80;;;19.03;58.09;98709.81;5083224;28;20036;-78
2022/10/24 02:01:17;;;;;;;10.38;7.28;;;19.00;91.90;;;19.06;58.17;98714.63;5068363;28;20079;-78
2022/10/24 02:03:56;;;;;;;12.95;8.15;;;19.10;92.00;;;19.10;57.99;98720.28;5072853;28;20060;-78
2022/10/24 02:06:38;;;;;;;11.80;8.20;;;19.10;91.90;;;19.09;57.46;98724.16;5076052;28;20036;-78
2022/10/24 02:09:24;;;;;;;8.45;6.57;;;19.10;91.80;;;19.09;57.53;98711.22;5056364;28;20142;-78
2022/10/24 02:11:50;;;;;;;9.30;7.25;;;19.00;91.70;;;19.08;57.31;98706.88;5070934;28;20680;-78
2022/10/24 02:14:29;;;;;;;11.07;7.97;;;19.00;91.70;;;19.04;57.83;98707.88;5067856;28;20044;-78
2022/10/24 02:16:56;;;;;;;11.93;7.47;;;19.00;91.80;;;19.02;58.09;98710.94;5069986;28;20054;-78
2022/10/24 02:19:21;;;;;;;9.93;8.07;;;19.00;91.90;;;19.03;58.20;98704.31;5051501;28;20039;-79
2022/10/24 02:22:18;;;;;;;9.23;7.32;;;19.00;92.00;;;19.05;57.77;98698.47;5064887;28;20040;-79
2022/10/24 02:25:02;;;;;;;9.18;8.15;;;19.00;91.80;;;19.03;57.49;98700.72;5087318;28;20110;-79
2022/10/24 02:27:33;;;;;;;10.18;8.45;;;19.00;91.80;;;19.06;57.42;98702.84;5071325;28;20040;-79
2022/10/24 02:30:11;;;;;;;12.47;7.80;;;19.00;91.80;;;19.04;57.64;98705.13;5052571;28;20050;-79
2022/10/24 02:32:41;;;;;;;12.48;8.38;;;19.00;91.80;;;18.96;58.27;98695.78;5053973;28;20042;-79
2022/10/24 02:35:09;;;;;;;9.43;7.55;;;19.00;91.90;;;19.05;58.17;98704.75;5070606;28;20055;-79
2022/10/24 02:37:38;;;;;;;9.90;7.95;;;19.00;92.00;;;19.03;57.73;98707.06;5065474;28;20092;-78
2022/10/24 02:40:06;;;;;;;11.38;7.50;;;19.00;91.80;;;19.04;57.72;98705.13;5067169;28;20667;-79
2022/10/24 02:42:33;;;;;;;9.13;7.32;;;19.00;91.80;;;19.05;57.70;98706.72;5070490;28;20523;-78
2022/10/24 02:44:59;;;;;;;9.73;7.47;;;19.00;91.70;;;18.99;57.71;98692.34;5053836;28;20051;-78
2022/10/24 02:47:25;;;;;;;9.27;7.97;;;19.00;91.70;;;19.01;58.01;98701.09;5065980;28;20044;-79
2022/10/24 02:49:52;;;;;;;13.70;8.48;;;19.00;91.90;;;19.01;58.17;98703.84;5060729;27;20406;-79
2022/10/24 02:52:18;;;;;;;10.73;8.75;;;19.00;92.00;;;19.01;58.20;98692.84;5067590;27;20043;-78
2022/10/24 02:54:44;;;;;;;8.05;7.07;;;19.00;91.90;;;19.06;57.38;98700.09;5050167;28;20407;-79
2022/10/24 02:57:12;;;;;;;10.50;7.28;;;19.00;91.70;;;19.05;57.61;98702.00;5067513;27;20146;-78
2022/10/24 02:59:38;;;;;;;12.05;8.98;;;19.00;91.70;;;19.04;57.45;98696.88;5057882;28;20114;-79
2022/10/24 03:02:04;;;;;;;11.75;7.90;;;19.00;91.70;;;19.06;57.23;98694.59;5052097;27;20052;-79
2022/10/24 03:04:30;;;;;;;10.30;8.05;;;19.00;91.70;;;19.02;57.98;98686.19;5082862;27;20054;-79
2022/10/24 03:06:57;;;;;;;12.02;8.05;;;19.00;91.90;;;19.04;57.59;98694.91;5085271;28;20486;-79
2022/10/24 03:09:23;;;;;;;11.52;7.13;;;19.00;91.80;;;19.03;57.81;98692.50;5085701;27;20028;-78
2022/10/24 03:11:49;;;;;;;11.23;8.32;;;19.00;91.80;;;19.05;57.22;98695.72;5102302;27;20040;-78
2022/10/24 03:14:15;;;;;;;11.88;8.30;;;19.00;91.70;;;19.05;57.28;98693.75;5060570;27;20042;-79
2022/10/24 03:16:41;;;;;;;11.95;8.43;;;19.00;91.70;;;19.04;57.21;98692.16;5081116;27;20056;-79
2022/10/24 03:19:07;;;;;;;13.90;7.80;;;19.00;91.70;;;19.01;57.62;98690.09;5048691;28;20059;-79
2022/10/24 03:21:33;;;;;;;11.80;7.68;;;19.00;91.80;;;19.05;57.58;98688.28;5074205;28;20035;-79
2022/10/24 03:23:59;;;;;;;10.88;7.55;;;19.00;91.80;;;19.03;57.83;98687.81;5072089;28;20046;-79
2022/10/24 03:26:25;;;;;;;10.98;8.10;;;19.00;91.80;;;19.04;57.54;98678.41;5068910;28;20048;-78
2022/10/24 03:28:51;;;;;;;12.35;8.48;;;19.00;91.70;;;19.00;57.33;98682.16;5067347;28;20047;-79
2022/10/24 03:31:17;;;;;;;11.15;8.25;;;19.00;91.60;;;19.01;57.29;98672.78;5067000;28;20501;-79
2022/10/24 03:33:43;;;;;;;11.27;8.32;;;19.00;91.70;;;19.04;57.28;98661.13;5084890;28;20028;-78
2022/10/24 03:36:09;;;;;;;12.27;8.25;;;19.00;91.70;;;18.97;57.69;98666.34;5086114;28;20043;-79
2022/10/24 03:38:35;;;;;;;12.15;8.50;;;19.00;91.80;;;18.96;57.98;98681.22;5067518;28;20454;-79
2022/10/24 03:41:01;;;;;;;8.65;7.75;;;19.00;91.90;;;18.99;57.83;98684.13;5072818;28;20044;-79
2022/10/24 03:43:27;;;;;;;13.45;9.15;;;19.00;91.90;;;19.00;57.48;98688.47;5078051;28;20039;-77
2022/10/24 03:45:53;;;;;;;12.30;8.38;;;18.90;91.70;;;19.00;57.13;98687.66;5081895;28;20130;-77
2022/10/24 03:48:19;;;;;;;9.80;7.80;;;18.90;91.70;;;18.99;57.41;98678.63;5068588;27;20055;-77
2022/10/24 03:50:45;;;;;;;10.88;8.88;;;18.90;91.70;;;19.01;57.18;98675.53;5076674;27;20087;-77
2022/10/24 03:53:11;;;;;;;11.80;8.40;;;18.90;91.70;;;18.96;57.55;98673.78;5055347;28;20394;-77
2022/10/24 03:55:38;;;;;;;11.75;9.05;;;19.00;91.70;;;19.00;56.49;98684.91;5067351;27;20051;-77
2022/10/24 03:58:04;;;;;;;11.93;8.88;;;19.00;91.40;;;19.01;56.12;98695.59;5080993;28;20047;-77
2022/10/24 04:00:33;;;;;;;12.95;9.50;;;18.90;91.30;;;18.99;56.10;98692.34;5049309;27;20115;-77
2022/10/24 04:02:59;;;;;;;10.55;8.65;;;19.00;91.30;;;19.02;56.28;98702.69;5084401;28;20612;-77
2022/10/24 04:05:25;;;;;;;14.30;9.05;;;19.00;91.30;;;18.98;57.14;98689.94;5067474;27;20035;-76
2022/10/24 04:07:51;;;;;;;12.85;8.48;;;19.00;91.60;;;19.01;56.89;98694.78;5099541;27;20040;-77
2022/10/24 04:10:17;;;;;;;8.95;7.80;;;19.00;91.60;;;19.02;56.28;98682.63;5082056;28;20047;-77
2022/10/24 04:12:43;;;;;;;13.55;10.05;;;19.00;91.30;;;18.97;55.78;98683.63;5095781;27;20036;-77
2022/10/24 04:15:10;;;;;;;13.23;9.88;;;19.00;91.20;;;18.98;55.74;98692.69;5065160;27;20052;-77
2022/10/24 04:17:36;;;;;;;14.48;9.70;;;19.00;91.10;;;18.98;55.42;98695.44;5051757;27;20435;-77
2022/10/24 04:20:03;;;;;;;15.52;9.60;;;19.00;91.00;;;18.97;56.45;98685.59;5088671;27;20044;-77
2022/10/24 04:22:29;;;;;;;14.77;9.50;;;19.00;91.30;;;18.96;56.65;98684.78;5063462;27;20530;-77
2022/10/24 04:24:55;;;;;;;11.77;8.40;;;19.00;91.40;;;18.97;56.40;98683.63;5065892;27;20487;-77
2022/10/24 04:27:21;;;;;;;11.95;9.48;;;19.00;91.40;;;18.97;55.82;98693.81;5070512;27;20080;-77
2022/10/24 04:29:47;;;;;;;15.00;10.93;;;19.00;91.10;;;18.96;55.71;98695.78;5097839;27;20032;-76
2022/10/24 04:32:13;;;;;;;14.40;10.13;;;19.00;91.00;;;18.94;55.28;98683.50;5063714;27;20646;-77
2022/10/24 04:34:39;;;;;;;11.45;9.18;;;19.00;90.90;;;18.93;55.59;98681.88;5065342;28;20040;-77
2022/10/24 04:37:05;;;;;;;11.90;9.02;;;19.00;91.00;;;18.97;56.25;98677.34;5081200;27;20038;-76
2022/10/24 04:39:31;;;;;;;11.75;8.65;;;19.00;91.30;;;18.96;56.27;98686.72;5070565;27;20104;-77
2022/10/24 04:41:57;;;;;;;13.15;9.77;;;19.00;91.30;;;18.97;55.78;98688.34;5064879;28;20040;-77
2022/10/24 04:44:23;;;;;;;11.77;9.60;;;19.00;91.10;;;18.94;55.28;98691.75;5078622;28;20096;-77
2022/10/24 04:46:49;;;;;;;13.63;9.68;;;19.00;90.90;;;18.94;54.96;98691.75;5094894;27;20056;-76
2022/10/24 04:49:16;;;;;;;13.27;10.20;;;19.00;90.80;;;18.96;54.97;98689.47;5027091;28;20105;-76
2022/10/24 04:51:42;;;;;;;16.50;9.25;;;19.00;90.80;;;18.94;55.48;98689.00;5049207;28;20037;-77
2022/10/24 04:54:08;;;;;;;12.18;9.50;;;19.00;91.00;;;18.96;56.06;98686.72;5029116;28;20113;-77
2022/10/24 04:56:34;;;;;;;11.88;9.60;;;19.00;91.20;;;18.98;55.99;98665.19;5048261;28;20044;-76
2022/10/24 04:59:00;;;;;;;14.52;9.02;;;19.00;91.20;;;18.96;55.45;98673.00;5058853;28;20036;-77
2022/10/24 05:01:26;;;;;;;14.32;10.32;;;19.00;90.90;;;18.89;55.29;98676.25;5031809;28;20044;-77
2022/10/24 05:03:52;;;;;;;13.05;9.75;;;18.90;90.80;;;18.91;55.18;98681.44;5043464;28;20044;-77
2022/10/24 05:06:18;;;;;;;12.65;9.90;;;19.00;90.80;;;18.94;54.80;98670.56;5060247;28;20048;-77
2022/10/24 05:08:45;;;;;;;13.10;9.85;;;19.00;90.70;;;18.94;55.39;98661.50;5062482;28;20044;-77
2022/10/24 05:11:11;;;;;;;16.10;9.80;;;19.00;91.00;;;18.95;55.55;98663.13;5057743;28;20044;-77
2022/10/24 05:13:37;;;;;;;12.73;9.60;;;18.90;91.00;;;18.93;55.49;98660.72;5043279;28;20052;-76
2022/10/24 05:16:04;;;;;;;12.85;9.60;;;19.00;91.00;;;18.92;54.72;98652.78;5045393;28;20518;-77
2022/10/24 05:18:31;;;;;;;15.40;10.32;;;19.00;90.70;;;18.95;54.82;98669.41;5042046;28;20044;-77
2022/10/24 05:20:58;;;;;;;12.93;10.48;;;19.00;90.60;;;18.92;54.72;98669.28;5057963;28;20036;-77
2022/10/24 05:23:24;;;;;;;11.88;9.02;;;19.00;90.60;;;18.90;54.56;98661.34;5061677;28;20040;-77
2022/10/24 05:25:50;;;;;;;11.60;9.88;;;19.00;90.60;;;18.90;55.24;98672.34;5043112;28;20855;-77
2022/10/24 05:28:17;;;;;;;11.43;8.18;;;19.00;90.90;;;18.92;55.43;98670.06;5042695;28;20483;-76
2022/10/24 05:30:43;;;;;;;13.25;9.75;;;19.00;91.00;;;18.89;55.27;98673.50;5048365;28;20042;-76
2022/10/24 05:33:09;;;;;;;12.80;9.93;;;19.00;90.80;;;18.92;54.90;98680.28;5037489;28;20039;-80
2022/10/24 05:35:36;;;;;;;14.32;10.23;;;19.00;90.60;;;19.01;57.81;98681.03;5031450;28;20150;-82
2022/10/24 05:38:02;;;;;;;14.63;8.25;;;19.00;91.90;;;19.17;61.21;98678.50;5041203;28;20448;-82
2022/10/24 05:40:28;;;;;;;15.15;9.88;;;19.00;93.20;;;19.30;63.46;98682.94;5030177;28;20039;-79
2022/10/24 05:42:54;;;;;;;12.82;9.05;;;19.10;93.80;;;19.50;65.09;98673.09;5056826;28;20044;-80
2022/10/24 05:45:21;;;;;;;15.82;8.98;;;19.20;94.30;;;19.48;66.22;98664.38;5044051;28;20121;-79
2022/10/24 05:47:47;;;;;;;14.15;8.90;;;19.30;94.50;;;19.54;66.25;98668.53;5058136;28;20067;-80
2022/10/24 05:50:15;;;;;;;13.13;9.15;;;19.30;94.20;;;19.56;66.57;98671.75;5063610;28;20044;-81
2022/10/24 05:52:41;;;;;;;10.10;8.00;;;19.40;94.20;;;19.56;67.09;98673.69;5064686;28;20047;-82
2022/10/24 05:55:08;;;;;;;11.75;7.88;;;19.40;94.30;;;19.55;67.45;98667.38;5051754;28;20050;-82
2022/10/24 05:57:36;;;;;;;13.52;8.38;;;19.40;94.30;;;19.58;67.45;98668.66;5063268;28;20075;-82
2022/10/24 06:00:05;;;;;;;10.63;8.30;;;19.40;94.30;;;19.59;67.39;98676.59;5063788;28;20039;-82
2022/10/24 06:02:32;;;;;;;12.00;8.25;;;19.40;94.20;;;19.60;67.31;98682.91;5082008;28;20836;-82
2022/10/24 06:04:59;;;;;;;9.85;7.47;;;19.40;94.20;;;19.59;67.35;98687.59;5061293;28;20031;-82
2022/10/24 06:07:25;;;;;;;12.32;8.95;;;19.40;94.20;;;19.66;67.36;98687.03;5051405;28;20059;-82
2022/10/24 06:09:51;;;;;;;11.23;8.18;;;19.40;94.20;;;19.65;67.46;98685.44;5048360;28;20054;-81
2022/10/24 06:12:18;;;;;;;13.10;7.60;;;19.40;94.20;;;19.65;67.55;98682.69;5081541;28;20567;-81
2022/10/24 06:14:44;;;;;;;9.07;7.90;;;19.50;94.20;;;19.68;67.31;98701.31;5063036;28;20067;-81
2022/10/24 06:17:10;;;;;;;11.15;8.88;;;19.50;94.20;;;19.68;67.06;98691.09;5081300;28;20044;-81
2022/10/24 06:19:37;;;;;;;12.07;7.70;;;19.50;94.10;;;19.66;67.25;98704.34;5049136;28;20039;-81
2022/10/24 06:22:04;;;;;;;16.05;9.18;;;19.50;94.20;;;19.70;66.97;98712.78;5054509;28;20164;-81
2022/10/24 06:24:33;;;;;;;12.07;8.50;;;19.50;94.10;;;19.70;66.88;98707.28;5062683;27;20084;-81
2022/10/24 06:27:00;;;;;;;11.35;7.78;;;19.50;94.10;;;19.68;67.16;98717.81;5066267;27;20122;-81
2022/10/24 06:29:26;;;;;;;13.50;8.82;;;19.50;94.20;;;19.75;66.99;98714.53;5062437;27;20050;-81
2022/10/24 06:31:52;;;;;;;11.70;8.23;;;19.50;94.10;;;19.76;66.82;98716.13;5071015;27;20525;-81
2022/10/24 06:34:18;;;;;;;12.32;8.60;;;19.50;94.00;;;19.77;66.71;98709.47;5067143;27;20040;-81
2022/10/24 06:36:44;;;;;;;9.98;8.07;;;19.50;94.00;;;19.79;66.48;98707.19;5052253;27;20601;-81
2022/10/24 06:39:10;;;;;;;11.65;7.63;;;19.60;94.10;;;19.77;66.77;98712.22;5053029;27;20411;-81
2022/10/24 06:41:36;;;;;;;14.55;8.20;;;19.50;94.00;;;19.75;66.74;98707.06;5083515;27;20402;-81
2022/10/24 06:44:02;;;;;;;9.65;7.63;;;19.60;94.00;;;19.83;66.36;98725.47;5083194;27;20046;-81
2022/10/24 06:46:28;;;;;;;22.88;9.60;;;19.60;94.00;;;19.82;66.35;98720.28;5061168;28;20139;-81
2022/10/24 06:48:54;;;;;;;8.73;7.55;;;19.60;94.00;;;19.85;66.26;98719.63;5050836;28;20044;-81
2022/10/24 06:51:23;;;;;;;11.55;8.63;;;19.70;94.00;;;19.87;65.82;98720.06;5036465;28;20071;-81
2022/10/24 06:53:49;;;;;;;10.75;8.07;;;19.60;93.90;;;19.86;65.80;98730.28;5031210;28;20071;-81
2022/10/24 06:56:16;;;;;;;10.30;7.70;;;19.60;93.90;;;19.87;66.11;98725.56;5029057;28;20040;-81
2022/10/24 06:58:42;;;;;;;12.30;8.20;;;19.60;93.90;;;19.86;66.00;98729.47;5053570;28;20511;-81
2022/10/24 07:01:18;;;;;;;8.30;7.20;;;19.70;93.90;;;19.87;65.85;98728.34;5033614;28;20040;-81
2022/10/24 07:03:44;;;;;;;9.50;8.27;;;19.60;93.90;;;19.87;65.51;98731.91;5032939;28;20594;-81
2022/10/24 07:06:24;;;;;;;10.68;8.30;;;19.70;93.80;;;19.88;65.42;98728.00;5026688;28;20147;-81
2022/10/24 07:08:51;;;;;;;12.30;8.10;;;19.70;93.80;;;19.87;65.54;98726.41;5064826;28;20151;-81
2022/10/24 07:11:18;;;;;;;10.32;6.90;;;19.70;93.80;;;19.90;65.33;98720.22;5029228;28;20783;-82
2022/10/24 07:13:44;;;;;;;10.90;8.38;;;19.70;93.80;;;19.94;65.47;98731.34;5059923;28;20042;-81
2022/10/24 07:16:10;;;;;;;12.77;8.57;;;19.70;93.80;;;19.93;65.23;98721.50;5043917;28;20037;-82
2022/10/24 07:18:36;;;;;;;8.93;7.97;;;19.70;93.80;;;19.95;65.03;98714.50;5053502;28;20400;-82
2022/10/24 07:21:10;;;;;;;9.90;7.78;;;19.70;93.70;;;19.95;64.82;98706.25;5034897;28;20131;-81
2022/10/24 07:23:36;;;;;;;10.65;8.10;;;19.70;93.70;;;19.97;64.95;98710.59;5029401;28;20384;-82
2022/10/24 07:26:04;;;;;;;13.13;7.88;;;19.70;93.70;;;19.98;64.68;98723.25;5049113;28;20483;-81
2022/10/24 07:28:30;;;;;;;10.18;8.23;;;19.70;93.70;;;19.98;64.65;98714.97;5046271;28;20690;-81
2022/10/24 07:30:56;;;;;;;8.38;7.43;;;19.70;93.70;;;19.99;64.59;98706.38;5033885;28;20043;-81
2022/10/24 07:33:22;;;;;;;11.30;7.68;;;19.70;93.80;;;20.03;64.43;98707.31;5048285;28;20051;-81
2022/10/24 07:35:48;;;;;;;12.32;8.52;;;19.80;93.70;;;20.02;64.52;98704.88;5044569;28;20044;-81
2022/10/24 07:38:14;;;;;;;7.70;6.38;;;19.80;93.60;;;20.01;64.17;98706.03;5079124;28;20114;-81
2022/10/24 07:40:41;;;;;;;8.90;7.28;;;19.80;93.60;;;20.02;64.25;98708.44;5049675;28;20454;-81
2022/10/24 07:43:07;;;;;;;11.95;8.65;;;19.90;93.60;;;20.06;64.11;98706.63;5068139;28;20040;-81
2022/10/24 07:45:33;;;;;;;11.35;8.15;;;19.90;93.60;;;20.10;63.81;98702.06;5037606;28;20515;-81
2022/10/24 07:47:59;;;;;;;8.82;7.82;;;19.90;93.60;;;20.15;63.56;98703.81;5060277;28;20048;-81
2022/10/24 07:50:26;;;;;;;9.43;7.18;;;19.90;93.60;;;20.12;63.32;98694.28;5061322;28;20118;-81
2022/10/24 07:52:52;;;;;;;9.15;7.30;;;19.90;93.50;;;20.13;63.56;98698.63;5078513;28;20483;-81
2022/10/24 07:55:18;;;;;;;10.27;7.68;;;19.90;93.40;;;20.16;63.20;98714.47;5064808;28;20115;-81
2022/10/24 07:57:44;;;;;;;10.70;7.25;;;20.00;93.40;;;20.14;63.36;98716.75;5054934;28;20092;-81
2022/10/24 08:00:11;;;;;;;9.68;8.32;;;19.90;93.40;;;20.19;63.13;98712.19;5065179;28;20456;-81
2022/10/24 08:02:37;;;;;;;10.32;7.00;;;19.90;93.40;;;20.21;63.23;98710.69;5052924;28;20115;-81
2022/10/24 08:05:03;;;;;;;12.07;8.15;;;20.00;93.40;;;20.23;62.98;98711.16;5049213;28;20175;-81
2022/10/24 08:07:29;;;;;;;7.43;6.70;;;20.00;93.40;;;20.28;62.79;98710.94;5069639;28;20047;-81
2022/10/24 08:09:55;;;;;;;9.15;8.18;;;20.00;93.40;;;20.32;62.56;98709.09;5069122;28;20398;-81
2022/10/24 08:12:21;;;;;;;9.65;7.38;;;20.00;93.40;;;20.36;62.70;98712.00;5085951;28;20036;-81
2022/10/24 08:14:48;;;;;;;11.43;8.30;;;20.10;93.50;;;20.34;62.78;98706.03;5049709;28;20128;-81
2022/10/24 08:17:16;;;;;;;12.48;7.53;;;20.10;93.60;;;20.34;62.85;98684.78;5066342;28;20276;-81
2022/10/24 08:19:42;;;;;;;9.27;7.82;;;20.10;93.50;;;20.31;62.98;98677.22;5064769;28;20465;-81
2022/10/24 08:22:08;;;;;;;10.40;7.05;;;20.10;93.50;;;20.32;63.16;98673.31;5062369;28;20581;-82
2022/10/24 08:24:35;;;;;;;8.20;7.40;;;20.10;93.50;;;20.34;63.09;98665.50;5080800;28;20402;-82
2022/10/24 08:27:01;;;;;;;8.27;6.50;;;20.20;93.50;;;20.37;63.11;98675.03;5048942;28;20051;-82
2022/10/24 08:29:27;;;;;;;10.57;7.63;;;20.20;93.50;;;20.40;63.10;98682.59;5064698;28;20395;-82
2022/10/24 08:31:54;;;;;;;8.80;6.93;;;20.20;93.50;;;20.43;63.53;98667.34;5079765;28;20036;-82
2022/10/24 08:34:21;;;;;;;11.60;7.15;;;20.30;93.60;;;20.42;63.47;98661.03;5065046;28;20398;-82
2022/10/24 08:36:47;;;;;;;11.18;7.57;;;20.30;93.50;;;20.45;63.48;98646.56;5087370;28;20041;-82
2022/10/24 08:39:14;;;;;;;8.70;6.60;;;20.30;93.50;;;20.49;62.91;98642.00;5066693;28;20111;-82
2022/10/24 08:41:51;;;;;;;9.27;6.70;;;20.30;93.80;;;20.51;63.06;98638.91;5060333;28;20036;-82
2022/10/24 08:44:39;;;;;;;8.15;6.85;;;20.30;93.50;;;20.58;62.93;98648.25;5065405;28;20069;-82
2022/10/24 08:47:41;;;;;;;8.40;6.57;;;20.40;93.50;;;20.65;62.96;98655.94;5050776;28;20093;-82
2022/10/24 08:50:26;;;;;;;9.52;7.95;;;20.40;93.60;;;20.73;62.34;98652.25;5062378;28;20137;-82
2022/10/24 08:53:01;;;;;;;6.25;5.63;;;20.50;93.50;;;20.79;62.02;98639.06;5063728;28;20489;-82
2022/10/24 08:55:52;;;;;;;8.23;6.63;;;20.50;93.50;;;20.84;61.87;98632.47;5067386;28;20870;-82
2022/10/24 08:58:36;;;;;;;8.80;6.45;;;20.50;93.40;;;20.88;61.67;98641.69;5045727;28;20041;-82
2022/10/24 09:01:07;;;;;;;7.10;5.85;;;20.50;93.50;;;20.86;61.99;98642.00;5058235;28;20127;-82
2022/10/24 09:03:50;;;;;;;7.78;6.97;;;20.60;93.60;;;20.89;62.17;98638.59;5044774;28;20129;-81
2022/10/24 09:06:21;;;;;;;7.22;6.10;;;20.60;93.60;;;20.90;62.02;98631.91;5020019;28;20491;-82
2022/10/24 09:08:52;;;;;;;6.63;6.00;;;20.70;93.50;;;20.90;62.08;98648.47;5048952;28;20069;-81
2022/10/24 09:11:27;;;;;;;6.90;5.72;;;20.70;93.40;;;20.93;61.77;98649.72;5052860;28;20146;-82
2022/10/24 09:13:54;;;;;;;8.68;6.88;;;20.70;93.40;;;20.89;61.62;98638.59;5067618;28;20067;-81
2022/10/24 09:16:21;;;;;;;7.85;5.97;;;20.70;93.70;;;20.88;62.15;98642.47;5036317;28;20406;-82
2022/10/24 09:18:50;;;;;;;6.60;5.80;;;20.80;93.40;;;20.87;62.67;98635.38;5039611;28;20041;-81
2022/10/24 09:21:16;;;;;;;6.60;5.93;;;20.70;93.40;;;20.90;62.31;98644.91;5032033;28;20040;-81
2022/10/24 09:23:42;;;;;;;8.82;6.43;;;20.70;93.50;;;20.93;62.17;98645.00;5035109;28;20051;-82
2022/10/24 09:26:15;;;;;;;9.07;6.45;;;20.70;93.40;;;20.93;61.73;98653.28;5048907;28;20043;-82
2022/10/24 09:28:41;;;;;;;8.45;6.75;;;20.80;93.30;;;20.92;61.72;98659.94;5029258;28;20419;-82
2022/10/24 09:31:16;;;;;;;7.85;5.55;;;20.80;93.30;;;20.94;61.70;98657.66;5045866;28;20044;-82
2022/10/24 09:33:44;;;;;;;7.32;5.57;;;20.80;93.30;;;21.02;61.33;98655.94;5061946;28;20048;-82
2022/10/24 09:36:12;;;;;;;9.00;6.40;;;20.80;93.30;;;21.05;61.42;98651.66;5060479;28;20483;-81
2022/10/24 09:38:39;;;;;;;6.70;5.97;;;20.80;93.30;;;21.03;61.20;98644.53;5029300;28;20044;-82
2022/10/24 09:41:27;;;;;;;6.97;5.72;;;20.90;93.30;;;21.03;61.08;98650.03;5044625;28;20045;-82
2022/10/24 09:43:55;;;;;;;7.63;6.70;;;20.90;93.20;;;21.03;61.02;98655.56;5062265;28;20532;-82
2022/10/24 09:46:44;;;;;;;5.88;5.22;;;20.90;93.20;;;21.04;60.92;98639.84;5038502;28;20051;-82
2022/10/24 09:49:13;;;;;;;6.30;5.22;;;20.90;93.20;;;21.06;61.13;98642.25;5072572;28;20044;-81
2022/10/24 09:51:44;;;;;;;5.75;5.13;;;20.90;93.20;;;21.06;60.20;98639.47;5081641;28;20114;-81
2022/10/24 09:54:19;;;;;;;7.37;5.27;;;20.90;93.10;;;21.12;60.73;98627.88;5048517;28;20548;-82
2022/10/24 09:56:57;;;;;;;8.18;5.68;;;20.90;93.10;;;21.11;60.48;98629.00;5099508;28;20119;-81
2022/10/24 09:59:33;;;;;;;6.82;5.28;;;20.90;93.10;;;21.10;60.83;98632.13;5069367;27;20046;-82
2022/10/24 10:02:27;;;;;;;6.85;5.13;;;21.00;93.10;;;21.10;60.72;98632.13;5088188;28;20247;-81
2022/10/24 10:05:03;;;;;;;5.32;4.68;;;21.00;93.10;;;21.09;60.77;98625.00;5097149;27;20531;-82
2022/10/24 10:07:37;;;;;;;8.07;5.63;;;20.90;93.00;;;21.18;60.65;98617.41;5104412;27;20042;-82
2022/10/24 10:10:24;;;;;;;5.85;5.35;;;21.00;93.10;;;21.18;60.57;98623.72;5084186;27;20058;-82
2022/10/24 10:13:21;;;;;;;6.07;5.00;;;21.10;93.20;;;21.17;60.53;98633.16;5071816;27;20123;-82
2022/10/24 10:15:59;;;;;;;5.97;5.38;;;21.00;93.10;;;21.15;60.48;98634.66;5086496;28;20039;-82
2022/10/24 10:19:02;;;;;;;9.52;5.35;;;21.10;93.10;;;21.18;60.13;98629.22;5074551;28;20209;-81
2022/10/24 10:21:28;;;;;;;5.25;4.72;;;21.10;93.00;;;21.21;60.12;98636.81;5068163;28;20062;-82
2022/10/24 10:23:55;;;;;;;5.68;5.07;;;21.10;93.00;;;21.20;60.35;98642.69;5070322;27;20110;-82
2022/10/24 10:26:30;;;;;;;7.40;5.57;;;21.10;93.10;;;21.26;60.28;98641.28;5068645;27;20454;-81